sensor_id;sensor_type;location;lat;lon;timestamp;pressure;altitude;pressure_sealevel;temperature;humidity
23170;BME280;11753;43.144;24.714;2023-02-21T00:00:15;99819.88;;;7.81;56.02
23170;BME280;11753;43.144;24.714;2023-02-21T00:01:34;99821.53;;;7.82;55.91
23170;BME280;11753;43.144;24.714;2023-02-21T00:02:54;99823.38;;;7.91;55.66
23170;BME280;11753;43.144;24.714;2023-02-21T00:04:13;99816.84;;;7.85;55.53
23170;BME280;11753;43.144;24.714;2023-02-21T00:05:32;99814.38;;;7.84;55.88
23170;BME280;11753;43.144;24.714;2023-02-21T00:06:51;99811.75;;;7.84;55.77
23170;BME280;11753;43.144;24.714;2023-02-21T00:08:11;99808.31;;;7.83;55.83
23170;BME280;11753;43.144;24.714;2023-02-21T00:09:30;99804.59;;;7.86;55.65
23170;BME280;11753;43.144;24.714;2023-02-21T00:10:49;99807.78;;;7.89;55.62
23170;BME280;11753;43.144;24.714;2023-02-21T00:12:09;99799.47;;;7.84;55.93
23170;BME280;11753;43.144;24.714;2023-02-21T00:13:28;99795.66;;;7.88;55.52
23170;BME280;11753;43.144;24.714;2023-02-21T00:14:47;99787.19;;;7.85;55.56
23170;BME280;11753;43.144;24.714;2023-02-21T00:16:07;99794.22;;;7.84;56.02
23170;BME280;11753;43.144;24.714;2023-02-21T00:17:26;99792.06;;;7.89;55.68
23170;BME280;11753;43.144;24.714;2023-02-21T00:18:45;99794.53;;;7.91;55.70
23170;BME280;11753;43.144;24.714;2023-02-21T00:20:04;99793.69;;;7.81;55.86
23170;BME280;11753;43.144;24.714;2023-02-21T00:21:27;99793.69;;;7.81;55.84
23170;BME280;11753;43.144;24.714;2023-02-21T00:22:46;99791.22;;;7.89;55.69
23170;BME280;11753;43.144;24.714;2023-02-21T00:24:05;99798.81;;;7.92;55.37
23170;BME280;11753;43.144;24.714;2023-02-21T00:25:25;99798.00;;;7.91;55.27
23170;BME280;11753;43.144;24.714;2023-02-21T00:26:45;99790.00;;;7.93;55.50
23170;BME280;11753;43.144;24.714;2023-02-21T00:28:04;99797.84;;;7.93;55.20
23170;BME280;11753;43.144;24.714;2023-02-21T00:29:23;99787.94;;;7.96;55.44
23170;BME280;11753;43.144;24.714;2023-02-21T00:30:43;99788.63;;;7.98;55.18
23170;BME280;11753;43.144;24.714;2023-02-21T00:32:02;99792.81;;;8.01;55.00
23170;BME280;11753;43.144;24.714;2023-02-21T00:33:22;99787.19;;;8.15;54.69
23170;BME280;11753;43.144;24.714;2023-02-21T00:34:41;99790.84;;;7.93;55.34
23170;BME280;11753;43.144;24.714;2023-02-21T00:36:00;99781.06;;;7.95;55.14
23170;BME280;11753;43.144;24.714;2023-02-21T00:37:19;99780.75;;;7.89;55.42
23170;BME280;11753;43.144;24.714;2023-02-21T00:38:39;99780.59;;;7.90;55.47
23170;BME280;11753;43.144;24.714;2023-02-21T00:39:58;99778.88;;;8.00;55.14
23170;BME280;11753;43.144;24.714;2023-02-21T00:41:17;99762.28;;;8.00;55.14
23170;BME280;11753;43.144;24.714;2023-02-21T00:42:38;99755.69;;;8.06;54.61
23170;BME280;11753;43.144;24.714;2023-02-21T00:43:57;99752.38;;;8.04;54.84
23170;BME280;11753;43.144;24.714;2023-02-21T00:45:17;99744.66;;;8.12;54.31
23170;BME280;11753;43.144;24.714;2023-02-21T00:46:36;99751.69;;;8.11;54.46
23170;BME280;11753;43.144;24.714;2023-02-21T00:47:56;99746.59;;;8.10;54.46
23170;BME280;11753;43.144;24.714;2023-02-21T00:49:15;99745.25;;;8.15;54.41
23170;BME280;11753;43.144;24.714;2023-02-21T00:50:34;99739.94;;;8.06;54.62
23170;BME280;11753;43.144;24.714;2023-02-21T00:51:54;99744.38;;;8.05;54.61
23170;BME280;11753;43.144;24.714;2023-02-21T00:53:13;99730.28;;;8.06;54.55
23170;BME280;11753;43.144;24.714;2023-02-21T00:54:32;99733.34;;;8.11;54.79
23170;BME280;11753;43.144;24.714;2023-02-21T00:55:52;99731.69;;;8.10;54.57
23170;BME280;11753;43.144;24.714;2023-02-21T00:57:12;99729.06;;;8.10;54.60
23170;BME280;11753;43.144;24.714;2023-02-21T00:58:31;99732.22;;;8.04;54.77
23170;BME280;11753;43.144;24.714;2023-02-21T00:59:50;99725.47;;;8.11;54.54
23170;BME280;11753;43.144;24.714;2023-02-21T01:01:10;99724.66;;;8.11;54.64
23170;BME280;11753;43.144;24.714;2023-02-21T01:02:29;99727.00;;;8.14;54.63
23170;BME280;11753;43.144;24.714;2023-02-21T01:03:48;99720.91;;;8.13;54.67
23170;BME280;11753;43.144;24.714;2023-02-21T01:05:08;99717.06;;;8.17;54.65
23170;BME280;11753;43.144;24.714;2023-02-21T01:06:27;99715.28;;;8.18;54.56
23170;BME280;11753;43.144;24.714;2023-02-21T01:07:46;99710.56;;;8.21;54.38
23170;BME280;11753;43.144;24.714;2023-02-21T01:09:06;99712.38;;;8.21;54.34
23170;BME280;11753;43.144;24.714;2023-02-21T01:10:25;99708.38;;;8.26;54.21
23170;BME280;11753;43.144;24.714;2023-02-21T01:11:45;99707.69;;;8.24;54.19
23170;BME280;11753;43.144;24.714;2023-02-21T01:13:04;99712.94;;;8.24;54.26
23170;BME280;11753;43.144;24.714;2023-02-21T01:14:24;99709.34;;;8.25;54.14
23170;BME280;11753;43.144;24.714;2023-02-21T01:15:44;99711.97;;;8.25;54.09
23170;BME280;11753;43.144;24.714;2023-02-21T01:17:03;99709.78;;;8.31;53.90
23170;BME280;11753;43.144;24.714;2023-02-21T01:18:23;99700.25;;;8.30;53.95
23170;BME280;11753;43.144;24.714;2023-02-21T01:19:42;99705.75;;;8.26;54.05
23170;BME280;11753;43.144;24.714;2023-02-21T01:21:02;99700.66;;;8.35;53.94
23170;BME280;11753;43.144;24.714;2023-02-21T01:22:21;99694.22;;;8.39;53.66
23170;BME280;11753;43.144;24.714;2023-02-21T01:23:40;99687.53;;;8.35;53.67
23170;BME280;11753;43.144;24.714;2023-02-21T01:25:00;99694.34;;;8.47;53.23
23170;BME280;11753;43.144;24.714;2023-02-21T01:26:19;99690.91;;;8.37;53.46
23170;BME280;11753;43.144;24.714;2023-02-21T01:27:39;99692.13;;;8.42;53.40
23170;BME280;11753;43.144;24.714;2023-02-21T01:28:58;99687.06;;;8.50;53.23
23170;BME280;11753;43.144;24.714;2023-02-21T01:30:17;99681.81;;;8.50;53.18
23170;BME280;11753;43.144;24.714;2023-02-21T01:31:37;99685.81;;;8.45;53.30
23170;BME280;11753;43.144;24.714;2023-02-21T01:32:56;99677.78;;;8.46;53.34
23170;BME280;11753;43.144;24.714;2023-02-21T01:34:15;99686.78;;;8.44;53.61
23170;BME280;11753;43.144;24.714;2023-02-21T01:35:35;99690.78;;;8.38;53.74
23170;BME280;11753;43.144;24.714;2023-02-21T01:36:54;99690.03;;;8.26;54.53
23170;BME280;11753;43.144;24.714;2023-02-21T01:38:13;99686.31;;;8.29;54.28
23170;BME280;11753;43.144;24.714;2023-02-21T01:39:33;99680.94;;;8.31;54.33
23170;BME280;11753;43.144;24.714;2023-02-21T01:40:54;99683.97;;;8.36;54.16
23170;BME280;11753;43.144;24.714;2023-02-21T01:42:16;99687.03;;;8.41;53.74
23170;BME280;11753;43.144;24.714;2023-02-21T01:43:35;99679.59;;;8.46;53.67
23170;BME280;11753;43.144;24.714;2023-02-21T01:45:37;99681.78;;;8.41;53.71
23170;BME280;11753;43.144;24.714;2023-02-21T01:46:58;99684.84;;;8.46;53.99
23170;BME280;11753;43.144;24.714;2023-02-21T01:48:19;99687.25;;;8.18;54.26
23170;BME280;11753;43.144;24.714;2023-02-21T01:49:39;99686.03;;;8.22;54.51
23170;BME280;11753;43.144;24.714;2023-02-21T01:51:00;99687.53;;;8.25;54.57
23170;BME280;11753;43.144;24.714;2023-02-21T01:52:21;99681.91;;;8.30;54.33
23170;BME280;11753;43.144;24.714;2023-02-21T01:53:41;99680.66;;;8.34;54.42
23170;BME280;11753;43.144;24.714;2023-02-21T01:55:01;99675.53;;;8.32;54.01
23170;BME280;11753;43.144;24.714;2023-02-21T01:56:21;99673.22;;;8.39;53.59
23170;BME280;11753;43.144;24.714;2023-02-21T01:57:43;99663.00;;;8.36;53.72
23170;BME280;11753;43.144;24.714;2023-02-21T01:59:03;99667.59;;;8.43;53.54
23170;BME280;11753;43.144;24.714;2023-02-21T02:00:24;99659.97;;;8.50;53.43
23170;BME280;11753;43.144;24.714;2023-02-21T02:03:12;99653.88;;;8.49;53.27
23170;BME280;11753;43.144;24.714;2023-02-21T02:04:33;99649.63;;;8.58;53.22
23170;BME280;11753;43.144;24.714;2023-02-21T02:06:06;99643.28;;;8.51;53.29
23170;BME280;11753;43.144;24.714;2023-02-21T02:07:26;99648.09;;;8.55;53.04
23170;BME280;11753;43.144;24.714;2023-02-21T02:08:45;99638.72;;;8.53;53.14
23170;BME280;11753;43.144;24.714;2023-02-21T02:10:06;99647.81;;;8.49;53.41
23170;BME280;11753;43.144;24.714;2023-02-21T02:19:03;99637.88;;;8.43;53.79
23170;BME280;11753;43.144;24.714;2023-02-21T02:28:51;99635.41;;;8.51;54.26
23170;BME280;11753;43.144;24.714;2023-02-21T02:30:36;99644.22;;;8.50;54.27
23170;BME280;11753;43.144;24.714;2023-02-21T02:35:44;99639.13;;;8.58;53.33
23170;BME280;11753;43.144;24.714;2023-02-21T02:37:00;99634.41;;;8.62;53.36
23170;BME280;11753;43.144;24.714;2023-02-21T02:41:05;99646.81;;;8.69;53.20
23170;BME280;11753;43.144;24.714;2023-02-21T02:44:20;99636.75;;;8.55;53.71
23170;BME280;11753;43.144;24.714;2023-02-21T02:45:27;99650.16;;;8.62;53.36
23170;BME280;11753;43.144;24.714;2023-02-21T02:46:31;99642.69;;;8.67;53.13
23170;BME280;11753;43.144;24.714;2023-02-21T02:47:36;99644.50;;;8.66;53.06
23170;BME280;11753;43.144;24.714;2023-02-21T02:48:59;99630.09;;;8.70;53.14
23170;BME280;11753;43.144;24.714;2023-02-21T02:50:04;99633.16;;;8.75;52.81
23170;BME280;11753;43.144;24.714;2023-02-21T02:51:08;99634.94;;;8.75;52.92
23170;BME280;11753;43.144;24.714;2023-02-21T02:52:10;99636.44;;;8.77;52.69
23170;BME280;11753;43.144;24.714;2023-02-21T02:53:14;99642.78;;;8.94;52.53
23170;BME280;11753;43.144;24.714;2023-02-21T02:54:16;99643.63;;;8.85;52.91
23170;BME280;11753;43.144;24.714;2023-02-21T02:56:30;99642.81;;;8.75;53.05
23170;BME280;11753;43.144;24.714;2023-02-21T02:57:33;99646.13;;;8.87;52.65
23170;BME280;11753;43.144;24.714;2023-02-21T02:58:47;99644.75;;;8.82;52.68
23170;BME280;11753;43.144;24.714;2023-02-21T02:59:50;99647.50;;;8.71;53.08
23170;BME280;11753;43.144;24.714;2023-02-21T03:01:07;99655.53;;;8.79;52.80
23170;BME280;11753;43.144;24.714;2023-02-21T03:02:40;99656.34;;;8.80;52.78
23170;BME280;11753;43.144;24.714;2023-02-21T03:08:07;99654.69;;;8.69;53.31
23170;BME280;11753;43.144;24.714;2023-02-21T03:12:39;99638.63;;;8.92;52.55
23170;BME280;11753;43.144;24.714;2023-02-21T03:13:52;99656.28;;;8.99;52.17
23170;BME280;11753;43.144;24.714;2023-02-21T03:16:30;99657.63;;;9.13;51.73
23170;BME280;11753;43.144;24.714;2023-02-21T03:17:38;99652.00;;;9.08;51.95
23170;BME280;11753;43.144;24.714;2023-02-21T03:18:45;99654.34;;;9.11;51.74
23170;BME280;11753;43.144;24.714;2023-02-21T03:19:49;99654.59;;;9.18;51.36
23170;BME280;11753;43.144;24.714;2023-02-21T03:20:57;99659.84;;;9.18;51.47
23170;BME280;11753;43.144;24.714;2023-02-21T03:22:04;99653.47;;;9.20;51.20
23170;BME280;11753;43.144;24.714;2023-02-21T03:23:07;99660.94;;;9.25;51.30
23170;BME280;11753;43.144;24.714;2023-02-21T03:24:12;99653.06;;;9.25;51.17
23170;BME280;11753;43.144;24.714;2023-02-21T03:25:15;99648.47;;;9.36;50.79
23170;BME280;11753;43.144;24.714;2023-02-21T03:26:17;99656.03;;;9.40;50.34
23170;BME280;11753;43.144;24.714;2023-02-21T03:27:20;99651.84;;;9.47;50.48
23170;BME280;11753;43.144;24.714;2023-02-21T03:28:22;99657.50;;;9.52;50.54
23170;BME280;11753;43.144;24.714;2023-02-21T03:29:24;99660.88;;;9.44;51.06
23170;BME280;11753;43.144;24.714;2023-02-21T03:30:27;99655.88;;;9.41;51.11
23170;BME280;11753;43.144;24.714;2023-02-21T03:31:36;99655.63;;;9.34;51.47
23170;BME280;11753;43.144;24.714;2023-02-21T03:32:43;99642.66;;;9.33;51.10
23170;BME280;11753;43.144;24.714;2023-02-21T03:33:46;99653.88;;;9.25;51.79
23170;BME280;11753;43.144;24.714;2023-02-21T03:34:47;99648.47;;;9.27;51.83
23170;BME280;11753;43.144;24.714;2023-02-21T03:35:48;99655.09;;;9.31;51.10
23170;BME280;11753;43.144;24.714;2023-02-21T03:36:49;99651.50;;;9.32;51.07
23170;BME280;11753;43.144;24.714;2023-02-21T03:37:52;99658.41;;;9.33;51.00
23170;BME280;11753;43.144;24.714;2023-02-21T03:38:53;99652.91;;;9.26;51.64
23170;BME280;11753;43.144;24.714;2023-02-21T03:39:54;99658.72;;;9.30;51.61
23170;BME280;11753;43.144;24.714;2023-02-21T03:40:55;99665.25;;;9.16;51.89
23170;BME280;11753;43.144;24.714;2023-02-21T03:41:56;99667.88;;;9.16;52.04
23170;BME280;11753;43.144;24.714;2023-02-21T03:42:59;99661.91;;;9.14;52.07
23170;BME280;11753;43.144;24.714;2023-02-21T03:44:00;99661.25;;;9.12;52.33
23170;BME280;11753;43.144;24.714;2023-02-21T03:45:01;99660.97;;;9.15;52.04
23170;BME280;11753;43.144;24.714;2023-02-21T03:46:02;99661.88;;;8.87;53.02
23170;BME280;11753;43.144;24.714;2023-02-21T03:47:03;99663.53;;;8.88;52.91
23170;BME280;11753;43.144;24.714;2023-02-21T03:48:04;99666.81;;;8.90;52.86
23170;BME280;11753;43.144;24.714;2023-02-21T03:49:05;99669.34;;;8.62;53.53
23170;BME280;11753;43.144;24.714;2023-02-21T03:50:06;99664.25;;;8.61;53.35
23170;BME280;11753;43.144;24.714;2023-02-21T03:51:07;99670.75;;;8.66;53.36
23170;BME280;11753;43.144;24.714;2023-02-21T03:52:10;99660.25;;;8.66;52.62
23170;BME280;11753;43.144;24.714;2023-02-21T03:53:12;99664.66;;;8.75;53.05
23170;BME280;11753;43.144;24.714;2023-02-21T03:54:13;99662.13;;;8.83;52.53
23170;BME280;11753;43.144;24.714;2023-02-21T03:55:14;99653.03;;;8.88;52.25
23170;BME280;11753;43.144;24.714;2023-02-21T03:56:15;99653.16;;;8.96;52.16
23170;BME280;11753;43.144;24.714;2023-02-21T03:57:15;99663.75;;;9.04;51.97
23170;BME280;11753;43.144;24.714;2023-02-21T03:58:16;99660.47;;;9.02;52.00
23170;BME280;11753;43.144;24.714;2023-02-21T03:59:17;99655.22;;;9.02;52.80
23170;BME280;11753;43.144;24.714;2023-02-21T04:00:17;99660.19;;;8.95;52.78
23170;BME280;11753;43.144;24.714;2023-02-21T04:01:18;99661.03;;;8.96;52.89
23170;BME280;11753;43.144;24.714;2023-02-21T04:02:19;99673.59;;;8.92;53.12
23170;BME280;11753;43.144;24.714;2023-02-21T04:03:20;99662.97;;;8.94;52.92
23170;BME280;11753;43.144;24.714;2023-02-21T04:04:21;99667.25;;;8.95;52.43
23170;BME280;11753;43.144;24.714;2023-02-21T04:05:22;99666.41;;;8.94;52.44
23170;BME280;11753;43.144;24.714;2023-02-21T04:06:23;99657.72;;;8.94;52.41
23170;BME280;11753;43.144;24.714;2023-02-21T04:07:24;99656.88;;;8.93;52.45
23170;BME280;11753;43.144;24.714;2023-02-21T04:08:47;99659.94;;;8.89;53.29
23170;BME280;11753;43.144;24.714;2023-02-21T04:09:48;99658.16;;;8.79;53.46
23170;BME280;11753;43.144;24.714;2023-02-21T04:10:49;99661.91;;;8.67;53.62
23170;BME280;11753;43.144;24.714;2023-02-21T04:11:49;99663.28;;;8.52;54.11
23170;BME280;11753;43.144;24.714;2023-02-21T04:12:50;99657.91;;;8.44;54.32
23170;BME280;11753;43.144;24.714;2023-02-21T04:13:50;99650.97;;;8.43;54.34
23170;BME280;11753;43.144;24.714;2023-02-21T04:14:51;99661.91;;;8.38;54.50
23170;BME280;11753;43.144;24.714;2023-02-21T04:15:52;99660.53;;;8.44;54.22
23170;BME280;11753;43.144;24.714;2023-02-21T04:16:52;99653.34;;;8.55;53.47
23170;BME280;11753;43.144;24.714;2023-02-21T04:17:53;99659.16;;;8.59;53.47
23170;BME280;11753;43.144;24.714;2023-02-21T04:18:54;99655.56;;;8.60;53.38
23170;BME280;11753;43.144;24.714;2023-02-21T04:19:55;99651.09;;;8.70;53.26
23170;BME280;11753;43.144;24.714;2023-02-21T04:20:58;99663.81;;;8.75;53.50
23170;BME280;11753;43.144;24.714;2023-02-21T04:21:59;99659.81;;;8.80;53.47
23170;BME280;11753;43.144;24.714;2023-02-21T04:23:05;99656.78;;;8.75;53.17
23170;BME280;11753;43.144;24.714;2023-02-21T04:24:05;99659.94;;;8.69;53.69
23170;BME280;11753;43.144;24.714;2023-02-21T04:25:07;99662.44;;;8.61;53.62
23170;BME280;11753;43.144;24.714;2023-02-21T04:26:07;99656.91;;;8.64;53.45
23170;BME280;11753;43.144;24.714;2023-02-21T04:27:08;99660.50;;;8.63;53.79
23170;BME280;11753;43.144;24.714;2023-02-21T04:28:09;99653.75;;;8.61;54.14
23170;BME280;11753;43.144;24.714;2023-02-21T04:29:10;99653.06;;;8.68;53.87
23170;BME280;11753;43.144;24.714;2023-02-21T04:30:11;99651.66;;;8.64;53.39
23170;BME280;11753;43.144;24.714;2023-02-21T04:31:15;99651.94;;;8.71;53.29
23170;BME280;11753;43.144;24.714;2023-02-21T04:32:16;99646.41;;;8.64;53.55
23170;BME280;11753;43.144;24.714;2023-02-21T04:33:17;99652.06;;;8.69;53.42
23170;BME280;11753;43.144;24.714;2023-02-21T04:34:18;99649.19;;;8.72;53.01
23170;BME280;11753;43.144;24.714;2023-02-21T04:35:19;99636.44;;;8.77;52.82
23170;BME280;11753;43.144;24.714;2023-02-21T04:36:20;99630.94;;;8.80;52.62
23170;BME280;11753;43.144;24.714;2023-02-21T04:37:21;99637.28;;;8.88;52.56
23170;BME280;11753;43.144;24.714;2023-02-21T04:38:22;99634.53;;;8.79;53.25
23170;BME280;11753;43.144;24.714;2023-02-21T04:39:23;99632.59;;;8.81;52.93
23170;BME280;11753;43.144;24.714;2023-02-21T04:40:24;99637.53;;;8.85;52.71
23170;BME280;11753;43.144;24.714;2023-02-21T04:41:25;99633.69;;;8.89;52.49
23170;BME280;11753;43.144;24.714;2023-02-21T04:42:26;99630.63;;;8.93;52.32
23170;BME280;11753;43.144;24.714;2023-02-21T04:43:27;99628.25;;;9.00;52.03
23170;BME280;11753;43.144;24.714;2023-02-21T04:44:28;99629.78;;;9.02;51.97
23170;BME280;11753;43.144;24.714;2023-02-21T04:45:29;99620.91;;;9.03;52.33
23170;BME280;11753;43.144;24.714;2023-02-21T04:46:30;99622.81;;;9.11;51.77
23170;BME280;11753;43.144;24.714;2023-02-21T04:47:31;99620.56;;;9.26;51.48
23170;BME280;11753;43.144;24.714;2023-02-21T04:48:32;99624.94;;;9.35;51.11
23170;BME280;11753;43.144;24.714;2023-02-21T04:49:33;99626.25;;;9.49;50.91
23170;BME280;11753;43.144;24.714;2023-02-21T04:50:34;99623.78;;;9.47;50.88
23170;BME280;11753;43.144;24.714;2023-02-21T04:51:35;99619.06;;;9.51;51.01
23170;BME280;11753;43.144;24.714;2023-02-21T04:52:36;99619.31;;;9.57;50.68
23170;BME280;11753;43.144;24.714;2023-02-21T04:53:41;99604.75;;;9.63;50.24
23170;BME280;11753;43.144;24.714;2023-02-21T04:54:46;99615.94;;;9.65;49.86
23170;BME280;11753;43.144;24.714;2023-02-21T04:55:48;99611.44;;;9.75;49.33
23170;BME280;11753;43.144;24.714;2023-02-21T04:56:49;99618.91;;;9.80;49.54
23170;BME280;11753;43.144;24.714;2023-02-21T04:57:50;99613.88;;;9.86;49.42
23170;BME280;11753;43.144;24.714;2023-02-21T04:58:51;99613.13;;;9.94;49.08
23170;BME280;11753;43.144;24.714;2023-02-21T04:59:59;99612.38;;;10.02;48.86
23170;BME280;11753;43.144;24.714;2023-02-21T05:01:00;99614.03;;;10.03;48.72
23170;BME280;11753;43.144;24.714;2023-02-21T05:02:01;99615.38;;;10.07;48.76
23170;BME280;11753;43.144;24.714;2023-02-21T05:03:02;99617.56;;;10.11;48.45
23170;BME280;11753;43.144;24.714;2023-02-21T05:04:04;99607.28;;;10.18;48.38
23170;BME280;11753;43.144;24.714;2023-02-21T05:05:07;99610.31;;;10.23;48.20
23170;BME280;11753;43.144;24.714;2023-02-21T05:06:08;99614.00;;;10.30;48.24
23170;BME280;11753;43.144;24.714;2023-02-21T05:07:09;99610.22;;;10.33;47.66
23170;BME280;11753;43.144;24.714;2023-02-21T05:08:10;99604.88;;;10.42;47.66
23170;BME280;11753;43.144;24.714;2023-02-21T05:09:11;99607.50;;;10.42;47.40
23170;BME280;11753;43.144;24.714;2023-02-21T05:10:14;99604.03;;;10.42;47.31
23170;BME280;11753;43.144;24.714;2023-02-21T05:11:17;99617.41;;;10.48;47.27
23170;BME280;11753;43.144;24.714;2023-02-21T05:12:19;99605.63;;;10.53;47.07
23170;BME280;11753;43.144;24.714;2023-02-21T05:13:20;99607.69;;;10.67;46.67
23170;BME280;11753;43.144;24.714;2023-02-21T05:14:23;99595.63;;;10.82;46.35
23170;BME280;11753;43.144;24.714;2023-02-21T05:15:24;99595.63;;;10.82;46.00
23170;BME280;11753;43.144;24.714;2023-02-21T05:16:25;99596.97;;;10.86;46.43
23170;BME280;11753;43.144;24.714;2023-02-21T05:17:26;99600.25;;;10.88;46.00
23170;BME280;11753;43.144;24.714;2023-02-21T05:18:27;99597.69;;;10.96;45.74
23170;BME280;11753;43.144;24.714;2023-02-21T05:19:28;99592.31;;;11.14;45.54
23170;BME280;11753;43.144;24.714;2023-02-21T05:20:31;99601.91;;;11.15;45.24
23170;BME280;11753;43.144;24.714;2023-02-21T05:21:34;99596.75;;;11.14;45.05
23170;BME280;11753;43.144;24.714;2023-02-21T05:22:38;99596.94;;;11.12;45.27
23170;BME280;11753;43.144;24.714;2023-02-21T05:23:40;99590.38;;;11.16;45.00
23170;BME280;11753;43.144;24.714;2023-02-21T05:24:42;99606.66;;;11.12;44.95
23170;BME280;11753;43.144;24.714;2023-02-21T05:25:43;99597.47;;;11.16;44.98
23170;BME280;11753;43.144;24.714;2023-02-21T05:26:45;99591.19;;;11.17;44.66
23170;BME280;11753;43.144;24.714;2023-02-21T05:27:46;99600.09;;;11.16;44.97
23170;BME280;11753;43.144;24.714;2023-02-21T05:28:48;99598.47;;;11.23;44.79
23170;BME280;11753;43.144;24.714;2023-02-21T05:29:51;99606.06;;;11.26;44.63
23170;BME280;11753;43.144;24.714;2023-02-21T05:30:52;99596.84;;;11.22;44.64
23170;BME280;11753;43.144;24.714;2023-02-21T05:31:53;99597.31;;;11.25;44.59
23170;BME280;11753;43.144;24.714;2023-02-21T05:32:54;99594.88;;;11.32;44.43
23170;BME280;11753;43.144;24.714;2023-02-21T05:33:56;99595.53;;;11.34;44.10
23170;BME280;11753;43.144;24.714;2023-02-21T05:34:57;99601.50;;;11.36;44.45
23170;BME280;11753;43.144;24.714;2023-02-21T05:35:58;99608.94;;;11.49;44.57
23170;BME280;11753;43.144;24.714;2023-02-21T05:36:59;99601.84;;;11.41;44.74
23170;BME280;11753;43.144;24.714;2023-02-21T05:38:00;99599.34;;;11.40;44.80
23170;BME280;11753;43.144;24.714;2023-02-21T05:39:02;99602.53;;;11.43;44.66
23170;BME280;11753;43.144;24.714;2023-02-21T05:40:04;99602.16;;;11.38;44.81
23170;BME280;11753;43.144;24.714;2023-02-21T05:41:05;99602.31;;;11.37;44.82
23170;BME280;11753;43.144;24.714;2023-02-21T05:42:06;99600.81;;;11.34;44.97
23170;BME280;11753;43.144;24.714;2023-02-21T05:43:08;99597.19;;;11.35;44.69
23170;BME280;11753;43.144;24.714;2023-02-21T05:44:09;99591.44;;;11.40;44.83
23170;BME280;11753;43.144;24.714;2023-02-21T05:45:10;99594.63;;;11.43;44.27
23170;BME280;11753;43.144;24.714;2023-02-21T05:46:28;99599.34;;;11.40;44.46
23170;BME280;11753;43.144;24.714;2023-02-21T05:47:29;99597.91;;;11.45;44.59
23170;BME280;11753;43.144;24.714;2023-02-21T05:48:32;99597.56;;;11.48;44.66
23170;BME280;11753;43.144;24.714;2023-02-21T05:49:33;99603.84;;;11.47;44.41
23170;BME280;11753;43.144;24.714;2023-02-21T05:50:34;99593.94;;;11.49;44.43
23170;BME280;11753;43.144;24.714;2023-02-21T05:51:41;99591.00;;;11.52;44.15
23170;BME280;11753;43.144;24.714;2023-02-21T05:52:42;99593.16;;;11.57;44.27
23170;BME280;11753;43.144;24.714;2023-02-21T05:53:43;99597.75;;;11.55;44.38
23170;BME280;11753;43.144;24.714;2023-02-21T05:54:44;99594.31;;;11.54;44.82
23170;BME280;11753;43.144;24.714;2023-02-21T05:55:45;99586.72;;;11.51;44.69
23170;BME280;11753;43.144;24.714;2023-02-21T05:56:49;99580.81;;;11.57;44.13
23170;BME280;11753;43.144;24.714;2023-02-21T05:57:50;99584.41;;;11.56;44.06
23170;BME280;11753;43.144;24.714;2023-02-21T05:58:51;99595.66;;;11.67;44.43
23170;BME280;11753;43.144;24.714;2023-02-21T05:59:52;99590.03;;;11.53;44.57
23170;BME280;11753;43.144;24.714;2023-02-21T06:00:53;99585.75;;;11.61;44.30
23170;BME280;11753;43.144;24.714;2023-02-21T06:01:54;99587.41;;;11.62;44.06
23170;BME280;11753;43.144;24.714;2023-02-21T06:02:56;99585.78;;;11.69;43.78
23170;BME280;11753;43.144;24.714;2023-02-21T06:03:57;99585.78;;;11.77;43.90
23170;BME280;11753;43.144;24.714;2023-02-21T06:04:58;99580.50;;;11.77;43.50
23170;BME280;11753;43.144;24.714;2023-02-21T06:05:59;99584.66;;;11.79;43.19
23170;BME280;11753;43.144;24.714;2023-02-21T06:07:00;99593.59;;;11.87;43.27
23170;BME280;11753;43.144;24.714;2023-02-21T06:08:01;99584.53;;;11.97;42.58
23170;BME280;11753;43.144;24.714;2023-02-21T06:09:03;99590.50;;;12.07;42.14
23170;BME280;11753;43.144;24.714;2023-02-21T06:10:05;99589.81;;;12.13;41.94
23170;BME280;11753;43.144;24.714;2023-02-21T06:11:06;99586.53;;;12.20;41.25
23170;BME280;11753;43.144;24.714;2023-02-21T06:12:09;99591.97;;;12.34;41.12
23170;BME280;11753;43.144;24.714;2023-02-21T06:13:10;99591.16;;;12.42;40.41
23170;BME280;11753;43.144;24.714;2023-02-21T06:14:19;99592.16;;;12.57;40.21
23170;BME280;11753;43.144;24.714;2023-02-21T06:15:20;99587.19;;;12.62;40.34
23170;BME280;11753;43.144;24.714;2023-02-21T06:16:22;99586.53;;;12.68;40.06
23170;BME280;11753;43.144;24.714;2023-02-21T06:17:23;99589.50;;;12.74;39.97
23170;BME280;11753;43.144;24.714;2023-02-21T06:18:24;99586.00;;;12.81;39.48
23170;BME280;11753;43.144;24.714;2023-02-21T06:19:25;99576.41;;;12.88;39.62
23170;BME280;11753;43.144;24.714;2023-02-21T06:20:26;99580.50;;;12.99;38.98
23170;BME280;11753;43.144;24.714;2023-02-21T06:21:27;99587.44;;;13.08;38.57
23170;BME280;11753;43.144;24.714;2023-02-21T06:22:28;99590.38;;;13.13;38.59
23170;BME280;11753;43.144;24.714;2023-02-21T06:23:32;99583.28;;;13.22;38.70
23170;BME280;11753;43.144;24.714;2023-02-21T06:24:33;99587.53;;;13.31;38.11
23170;BME280;11753;43.144;24.714;2023-02-21T06:25:34;99574.75;;;13.43;37.89
23170;BME280;11753;43.144;24.714;2023-02-21T06:26:35;99584.31;;;13.52;37.83
23170;BME280;11753;43.144;24.714;2023-02-21T06:27:37;99581.94;;;13.57;37.02
23170;BME280;11753;43.144;24.714;2023-02-21T06:28:38;99582.09;;;13.64;37.08
23170;BME280;11753;43.144;24.714;2023-02-21T06:29:39;99577.94;;;13.69;37.47
23170;BME280;11753;43.144;24.714;2023-02-21T06:30:40;99584.81;;;13.78;37.22
23170;BME280;11753;43.144;24.714;2023-02-21T06:31:41;99576.84;;;13.87;36.73
23170;BME280;11753;43.144;24.714;2023-02-21T06:32:42;99579.75;;;13.92;36.94
23170;BME280;11753;43.144;24.714;2023-02-21T06:33:46;99575.09;;;14.02;36.83
23170;BME280;11753;43.144;24.714;2023-02-21T06:34:48;99590.72;;;14.12;35.80
23170;BME280;11753;43.144;24.714;2023-02-21T06:35:49;99581.56;;;14.22;35.61
23170;BME280;11753;43.144;24.714;2023-02-21T06:36:54;99581.66;;;14.29;35.60